createdAt,value
2019-02-20T06:15:21.133Z,6.62
2019-02-20T06:17:49.509Z,5.10
2019-02-20T06:20:17.829Z,11.88
2019-02-20T06:22:46.216Z,10.30
2019-02-20T06:25:14.623Z,11.90
2019-02-20T06:27:42.964Z,5.28
2019-02-20T06:30:12.330Z,21.68
2019-02-20T06:32:40.629Z,32.38
2019-02-20T06:35:08.968Z,29.10
2019-02-20T06:37:37.320Z,26.02
2019-02-20T06:40:08.262Z,25.02
2019-02-20T06:42:36.658Z,22.62
2019-02-20T06:45:07.630Z,19.05
2019-02-20T06:47:36.006Z,18.00
2019-02-20T06:50:06.097Z,19.77
2019-02-20T06:52:34.452Z,23.00
2019-02-20T06:55:02.828Z,13.20
2019-02-20T06:57:31.195Z,16.23
2019-02-20T06:59:59.555Z,14.50
2019-02-20T07:02:27.968Z,10.60
2019-02-20T07:05:25.608Z,12.58
2019-02-20T07:08:14.752Z,10.40
2019-02-20T07:10:52.460Z,9.73
2019-02-20T07:13:23.737Z,9.78
2019-02-20T07:16:07.209Z,8.98
2019-02-20T07:18:38.921Z,7.17
2019-02-20T07:21:13.316Z,9.00
2019-02-20T07:23:44.884Z,10.28
2019-02-20T07:26:53.110Z,16.82
2019-02-20T07:29:41.162Z,10.72
2019-02-20T07:32:09.450Z,9.45
2019-02-20T07:34:37.751Z,9.55
2019-02-20T07:37:06.259Z,8.58
2019-02-20T07:39:34.598Z,6.87
2019-02-20T07:42:03.083Z,8.60
2019-02-20T07:44:31.367Z,10.60
2019-02-20T07:46:59.645Z,7.92
2019-02-20T07:49:27.987Z,8.63
2019-02-20T07:51:56.311Z,30.50
2019-02-20T07:54:24.600Z,14.40
2019-02-20T07:56:52.916Z,10.80
2019-02-20T07:59:21.283Z,11.53
2019-02-20T08:01:51.297Z,11.33
2019-02-20T08:04:19.661Z,12.90
2019-02-20T08:06:48.012Z,11.63
2019-02-20T08:09:16.331Z,8.50
2019-02-20T08:11:44.685Z,9.43
2019-02-20T08:14:13.013Z,7.92
2019-02-20T08:16:41.623Z,8.10
2019-02-20T08:19:11.693Z,6.72
2019-02-20T16:07:14.577Z,29.80
2019-02-20T16:09:42.841Z,31.95
2019-02-20T16:12:11.458Z,33.08
2019-02-20T16:14:39.718Z,32.58
2019-02-20T16:17:07.970Z,33.15
2019-02-20T16:19:36.223Z,32.88
2019-02-20T16:22:04.467Z,30.10
2019-02-20T16:24:32.821Z,36.50
2019-02-20T16:27:01.152Z,28.57
2019-02-20T16:29:29.793Z,28.42
2019-02-20T16:31:58.125Z,34.65
2019-02-20T16:34:26.369Z,30.75
2019-02-20T16:36:54.705Z,27.40
2019-02-20T16:39:23.022Z,28.05
2019-02-20T16:41:51.288Z,35.48
2019-02-20T16:44:19.638Z,30.43
2019-02-20T16:46:48.436Z,30.65
2019-02-20T16:49:16.812Z,25.57
2019-02-20T16:51:45.134Z,28.87
2019-02-20T16:54:13.377Z,26.27
2019-02-20T16:56:41.622Z,24.87
2019-02-20T16:59:09.906Z,26.48
2019-02-20T17:01:38.229Z,22.58
2019-02-20T17:04:07.251Z,22.02
2019-02-20T17:06:35.640Z,20.00
2019-02-20T17:09:05.597Z,22.48
2019-02-20T17:11:33.866Z,19.67
2019-02-20T17:14:02.177Z,18.52
2019-02-20T17:16:30.506Z,19.42
2019-02-20T17:18:59.845Z,18.07
2019-02-20T17:21:28.172Z,18.35
2019-02-20T17:23:56.509Z,21.05
2019-02-20T17:26:24.856Z,16.15
2019-02-20T17:28:53.087Z,18.65
2019-02-20T17:31:21.398Z,20.62
2019-02-20T17:33:49.671Z,17.27
2019-02-20T17:36:17.994Z,17.27
2019-02-20T17:38:46.300Z,15.90
2019-02-20T17:41:14.677Z,17.23
2019-02-20T17:43:43.935Z,21.33
2019-02-20T17:46:12.204Z,19.35
2019-02-20T17:48:40.509Z,18.15
2019-02-20T17:51:09.234Z,25.68
2019-02-20T17:53:37.585Z,17.35
2019-02-20T17:56:05.870Z,22.67
2019-02-20T17:58:35.835Z,21.62
2019-02-20T18:01:05.854Z,18.85
2019-02-20T18:03:34.094Z,24.75
2019-02-20T18:06:02.349Z,16.73
2019-02-20T18:08:30.625Z,16.52
2019-02-20T18:10:58.921Z,15.00
2019-02-20T18:13:27.225Z,15.88
2019-02-20T18:15:55.488Z,21.10
2019-02-20T18:18:23.729Z,15.10
2019-02-20T18:20:52.003Z,17.05
2019-02-20T18:23:20.260Z,19.98
2019-02-20T18:25:48.496Z,19.12
2019-02-20T18:28:24.147Z,16.12
2019-02-20T18:30:46.720Z,14.78
2019-02-20T18:33:14.970Z,17.45
2019-02-20T18:35:43.229Z,18.87
2019-02-20T18:38:11.466Z,16.55
2019-02-20T18:40:39.728Z,15.45
2019-02-20T18:43:07.974Z,13.48
2019-02-20T18:45:36.324Z,18.30
2019-02-20T18:48:04.576Z,20.25
2019-02-20T18:50:32.831Z,15.25
2019-02-20T18:53:01.163Z,17.10
2019-02-20T18:55:29.428Z,16.73
2019-02-20T18:57:59.684Z,17.60
2019-02-20T19:00:27.805Z,19.07
2019-02-20T19:02:56.053Z,18.70
2019-02-20T19:05:24.400Z,16.60
2019-02-20T19:07:52.734Z,15.43
2019-02-20T19:10:33.362Z,19.05
2019-02-20T19:13:20.048Z,18.27
2019-02-20T19:16:02.246Z,14.55
2019-02-20T19:19:14.219Z,21.20
2019-02-20T19:21:48.617Z,22.02
2019-02-20T19:24:40.901Z,20.12
2019-02-20T19:27:30.199Z,22.30
2019-02-20T19:30:22.948Z,19.32
2019-02-20T19:33:00.043Z,17.02
2019-02-20T19:35:34.162Z,17.75
2019-02-20T19:38:44.325Z,20.12
2019-02-20T19:41:24.547Z,20.37
2019-02-20T19:44:02.028Z,19.60
2019-02-20T19:46:36.588Z,20.10
2019-02-20T19:49:08.175Z,21.05
2019-02-20T19:51:57.239Z,19.67
2019-02-20T19:54:42.093Z,19.23
2019-02-20T19:57:37.545Z,19.62
2019-02-20T20:00:30.116Z,17.57
2019-02-20T20:03:19.433Z,22.00
2019-02-20T20:06:19.059Z,19.23
2019-02-20T20:09:07.288Z,20.12
2019-02-20T20:11:44.740Z,20.62
2019-02-20T20:14:12.098Z,13.70
2019-02-20T20:16:58.504Z,21.65
2019-02-20T20:19:34.242Z,15.38
2019-02-20T20:22:35.394Z,21.65
2019-02-20T20:25:24.642Z,18.40
2019-02-20T20:28:05.115Z,21.82
2019-02-20T20:30:36.675Z,19.10
2019-02-20T20:33:11.205Z,18.02
2019-02-20T20:35:48.670Z,21.95
2019-02-20T20:38:22.858Z,15.25
2019-02-20T20:41:12.474Z,23.80
2019-02-20T20:43:55.787Z,18.23
2019-02-20T20:46:39.510Z,20.10
2019-02-20T20:49:13.597Z,21.65
2019-02-20T20:52:00.437Z,21.87
2019-02-20T20:55:09.101Z,19.82
2019-02-20T20:58:04.831Z,20.90
2019-02-20T21:00:57.265Z,21.48
2019-02-20T21:03:28.714Z,24.10
2019-02-20T21:06:34.426Z,24.07
2019-02-20T21:09:06.001Z,22.13
2019-02-20T21:12:01.239Z,20.32
2019-02-20T21:14:58.604Z,18.77
2019-02-20T21:17:59.806Z,21.23
2019-02-20T21:20:58.038Z,20.48
2019-02-20T21:23:52.156Z,23.67
2019-02-20T21:26:32.442Z,21.75
2019-02-20T21:29:28.959Z,20.90
2019-02-20T21:32:21.933Z,21.73
2019-02-20T21:35:20.473Z,20.77
2019-02-20T21:38:17.741Z,23.80
2019-02-20T21:41:10.240Z,24.37
2019-02-20T21:43:44.327Z,23.45
2019-02-20T21:46:15.838Z,27.22
2019-02-20T21:49:01.708Z,22.90
2019-02-20T21:52:00.194Z,27.95
2019-02-20T21:54:52.186Z,25.40
2019-02-20T21:57:47.238Z,23.38
2019-02-20T22:00:30.885Z,22.30
2019-02-20T22:03:11.413Z,25.02
2019-02-20T22:05:58.557Z,26.07
2019-02-20T22:09:19.615Z,27.35
2019-02-20T22:12:08.907Z,25.08
2019-02-20T22:14:58.326Z,27.27
2019-02-20T22:17:32.310Z,23.40
2019-02-20T22:20:18.896Z,25.10
2019-02-20T22:23:07.103Z,25.97
2019-02-20T22:25:47.710Z,28.50
2019-02-20T22:28:31.155Z,22.42
2019-02-20T22:31:05.576Z,31.93
2019-02-20T22:33:37.080Z,25.05
2019-02-20T22:36:23.501Z,29.07
2019-02-20T22:38:57.839Z,30.65
2019-02-20T22:41:32.036Z,31.37
2019-02-20T22:44:06.216Z,32.17
2019-02-20T22:46:40.451Z,28.00
2019-02-20T22:49:11.989Z,28.12
2019-02-20T22:52:03.051Z,30.27
2019-02-20T22:54:52.406Z,26.87
2019-02-20T22:57:41.568Z,31.17
2019-02-20T23:00:53.092Z,27.93
2019-02-20T23:03:27.589Z,32.55
2019-02-20T23:06:20.165Z,27.42
2019-02-20T23:08:57.430Z,29.98
2019-02-20T23:11:45.727Z,28.30
2019-02-20T23:14:29.027Z,33.18
2019-02-20T23:16:57.377Z,31.73
2019-02-20T23:19:25.628Z,31.70
2019-02-20T23:21:53.960Z,30.17
2019-02-20T23:24:22.205Z,32.48
2019-02-20T23:26:50.438Z,37.13
2019-02-20T23:29:18.705Z,31.37
2019-02-20T23:31:46.937Z,30.52
2019-02-20T23:34:15.211Z,33.33
2019-02-20T23:36:43.465Z,32.42
2019-02-20T23:39:11.733Z,30.10
2019-02-20T23:41:59.419Z,31.42
2019-02-20T23:44:27.724Z,30.77
2019-02-20T23:46:55.962Z,29.05
2019-02-20T23:49:24.241Z,31.30
2019-02-20T23:51:52.484Z,28.87
2019-02-20T23:54:23.256Z,31.87
2019-02-20T23:56:50.716Z,29.82
2019-02-20T23:59:18.956Z,33.20
